createdAt,value
2022-08-06T00:00:08.329Z,80
2022-08-06T00:10:06.849Z,82
2022-08-06T00:20:07.067Z,83
2022-08-06T00:40:08.247Z,86
2022-08-06T00:50:08.799Z,87
2022-08-06T01:00:25.206Z,87
2022-08-06T01:21:21.401Z,88
2022-08-06T01:40:12.006Z,89
2022-08-06T02:00:13.801Z,90
2022-08-06T02:10:14.566Z,91
2022-08-06T02:20:18.788Z,91
2022-08-06T02:40:15.873Z,92
2022-08-06T03:00:17.744Z,92
2022-08-06T03:10:18.323Z,92
2022-08-06T03:20:18.880Z,92
2022-08-06T03:30:30.819Z,92
2022-08-06T03:40:20.125Z,93
2022-08-06T03:50:20.549Z,94
2022-08-06T04:00:22.545Z,94
2022-08-06T04:10:22.692Z,94
2022-08-06T04:20:41.352Z,94
2022-08-06T04:30:25.182Z,95
2022-08-06T04:40:27.683Z,95
2022-08-06T05:00:33.741Z,95
2022-08-06T05:10:26.701Z,95
2022-08-06T05:20:27.429Z,95
2022-08-06T05:30:28.354Z,95
2022-08-06T05:40:34.095Z,94
2022-08-06T05:50:29.250Z,93
2022-08-06T06:00:32.662Z,92
2022-08-06T06:10:33.461Z,92
2022-08-06T06:20:37.337Z,91
2022-08-06T06:30:33.398Z,90
2022-08-06T06:40:32.108Z,89
2022-08-06T07:00:47.081Z,87
2022-08-06T07:10:33.749Z,85
2022-08-06T07:20:34.613Z,83
2022-08-06T07:30:35.188Z,81
2022-08-06T07:40:35.422Z,79
2022-08-06T07:50:36.368Z,75
2022-08-06T08:00:38.205Z,74
2022-08-06T08:10:38.092Z,70
2022-08-06T08:20:38.241Z,69
2022-08-06T08:30:38.825Z,64
2022-08-06T08:40:39.219Z,64
2022-08-06T08:50:39.764Z,64
2022-08-06T09:00:40.450Z,63
2022-08-06T09:10:41.264Z,63
2022-08-06T09:20:45.900Z,61
2022-08-06T09:40:43.508Z,61
2022-08-06T09:50:44.296Z,59
2022-08-06T10:00:46.168Z,55
2022-08-06T10:10:45.367Z,57
2022-08-06T10:20:45.662Z,55
2022-08-06T10:30:46.484Z,54
2022-08-06T10:40:57.076Z,54
2022-08-06T10:50:54.490Z,54
2022-08-06T11:00:51.768Z,52
2022-08-06T11:10:49.489Z,53
2022-08-06T11:20:49.703Z,53
2022-08-06T11:30:51.344Z,51
2022-08-06T11:50:56.441Z,51
2022-08-06T12:00:56.923Z,52
2022-08-06T12:10:58.006Z,51
2022-08-06T12:21:00.123Z,50
2022-08-06T12:40:58.940Z,53
2022-08-06T12:50:59.553Z,54
2022-08-06T13:11:01.657Z,55
2022-08-06T13:21:02.808Z,51
2022-08-06T13:31:03.329Z,46
2022-08-06T13:41:04.473Z,44
2022-08-06T13:51:04.407Z,45
2022-08-06T14:11:05.796Z,44
2022-08-06T15:01:15.178Z,43
2022-08-06T15:41:10.415Z,46
2022-08-06T16:01:12.347Z,47
2022-08-06T16:11:13.860Z,47
2022-08-06T16:21:13.662Z,48
2022-08-06T16:31:14.839Z,48
2022-08-06T16:41:14.439Z,48
2022-08-06T16:52:41.552Z,48
2022-08-06T17:02:12.529Z,49
2022-08-06T17:11:44.518Z,49
2022-08-06T17:21:17.015Z,50
2022-08-06T17:41:18.529Z,51
2022-08-06T17:51:21.013Z,51
2022-08-06T18:01:43.296Z,52
2022-08-06T18:11:20.382Z,53
2022-08-06T18:21:24.352Z,53
2022-08-06T18:31:21.791Z,54
2022-08-06T18:41:22.200Z,55
2022-08-06T18:51:23.252Z,55
2022-08-06T19:01:23.473Z,56
2022-08-06T19:11:24.035Z,58
2022-08-06T19:41:54.947Z,62
2022-08-06T19:52:01.778Z,63
2022-08-06T20:12:03.499Z,66
2022-08-06T20:41:59.463Z,69
2022-08-06T20:51:29.549Z,69
2022-08-06T21:01:30.633Z,70
2022-08-06T21:21:32.411Z,71
2022-08-06T21:31:32.562Z,71
2022-08-06T21:41:54.180Z,72
2022-08-06T21:51:35.039Z,73
2022-08-06T22:02:09.295Z,73
2022-08-06T22:12:35.965Z,75
2022-08-06T22:21:41.915Z,75
2022-08-06T22:31:56.228Z,76
2022-08-06T22:41:42.177Z,77
2022-08-06T22:51:45.499Z,78
2022-08-06T23:02:04.084Z,78
2022-08-06T23:11:39.399Z,79
2022-08-06T23:21:44.152Z,80
2022-08-06T23:31:41.428Z,80
2022-08-06T23:41:58.105Z,81
2022-08-06T23:52:02.226Z,82
